sensor_id;sensor_type;location;lat;lon;timestamp;pressure;altitude;pressure_sealevel;temperature
20058;BMP180;10189;49.546;7.906;2023-07-13T00:02:24;98147.00;;;16.20
20058;BMP180;10189;49.546;7.906;2023-07-13T00:04:52;98145.00;;;16.20
20058;BMP180;10189;49.546;7.906;2023-07-13T00:07:18;98146.00;;;16.10
20058;BMP180;10189;49.546;7.906;2023-07-13T00:09:47;98148.00;;;16.10
20058;BMP180;10189;49.546;7.906;2023-07-13T00:12:27;98153.00;;;15.90
20058;BMP180;10189;49.546;7.906;2023-07-13T00:14:59;98153.00;;;15.90
20058;BMP180;10189;49.546;7.906;2023-07-13T00:17:27;98160.00;;;15.90
20058;BMP180;10189;49.546;7.906;2023-07-13T00:19:55;98166.00;;;15.70
20058;BMP180;10189;49.546;7.906;2023-07-13T00:22:23;98162.00;;;15.70
20058;BMP180;10189;49.546;7.906;2023-07-13T00:24:54;98170.00;;;15.70
20058;BMP180;10189;49.546;7.906;2023-07-13T00:27:23;98165.00;;;15.70
20058;BMP180;10189;49.546;7.906;2023-07-13T00:29:49;98166.00;;;15.60
20058;BMP180;10189;49.546;7.906;2023-07-13T00:32:15;98167.00;;;15.60
20058;BMP180;10189;49.546;7.906;2023-07-13T00:34:41;98171.00;;;15.60
20058;BMP180;10189;49.546;7.906;2023-07-13T00:37:07;98168.00;;;15.50
20058;BMP180;10189;49.546;7.906;2023-07-13T00:39:35;98165.00;;;15.50
20058;BMP180;10189;49.546;7.906;2023-07-13T00:42:03;98168.00;;;15.50
20058;BMP180;10189;49.546;7.906;2023-07-13T00:44:29;98169.00;;;15.40
20058;BMP180;10189;49.546;7.906;2023-07-13T00:46:55;98166.00;;;15.40
20058;BMP180;10189;49.546;7.906;2023-07-13T00:49:26;98169.00;;;15.40
20058;BMP180;10189;49.546;7.906;2023-07-13T00:52:00;98176.00;;;15.30
20058;BMP180;10189;49.546;7.906;2023-07-13T00:54:37;98185.00;;;15.30
20058;BMP180;10189;49.546;7.906;2023-07-13T00:57:08;98167.00;;;15.20
20058;BMP180;10189;49.546;7.906;2023-07-13T00:59:36;98169.00;;;15.20
20058;BMP180;10189;49.546;7.906;2023-07-13T01:02:04;98183.00;;;15.20
20058;BMP180;10189;49.546;7.906;2023-07-13T01:04:30;98179.00;;;15.10
20058;BMP180;10189;49.546;7.906;2023-07-13T01:06:57;98171.00;;;15.10
20058;BMP180;10189;49.546;7.906;2023-07-13T01:09:26;98177.00;;;15.10
20058;BMP180;10189;49.546;7.906;2023-07-13T01:11:52;98180.00;;;15.10
20058;BMP180;10189;49.546;7.906;2023-07-13T01:14:18;98173.00;;;15.10
20058;BMP180;10189;49.546;7.906;2023-07-13T01:16:46;98185.00;;;15.00
20058;BMP180;10189;49.546;7.906;2023-07-13T01:19:25;98183.00;;;14.90
20058;BMP180;10189;49.546;7.906;2023-07-13T01:22:16;98175.00;;;14.90
20058;BMP180;10189;49.546;7.906;2023-07-13T01:24:45;98181.00;;;14.90
20058;BMP180;10189;49.546;7.906;2023-07-13T01:27:20;98181.00;;;14.80
20058;BMP180;10189;49.546;7.906;2023-07-13T01:29:46;98187.00;;;14.80
20058;BMP180;10189;49.546;7.906;2023-07-13T01:32:24;98189.00;;;14.70
20058;BMP180;10189;49.546;7.906;2023-07-13T01:34:54;98193.00;;;14.70
20058;BMP180;10189;49.546;7.906;2023-07-13T01:37:21;98190.00;;;14.70
20058;BMP180;10189;49.546;7.906;2023-07-13T01:39:47;98181.00;;;14.60
20058;BMP180;10189;49.546;7.906;2023-07-13T01:42:14;98177.00;;;14.60
20058;BMP180;10189;49.546;7.906;2023-07-13T01:44:41;98180.00;;;14.60
20058;BMP180;10189;49.546;7.906;2023-07-13T01:47:07;98192.00;;;14.50
20058;BMP180;10189;49.546;7.906;2023-07-13T01:49:33;98190.00;;;14.50
20058;BMP180;10189;49.546;7.906;2023-07-13T01:51:59;98190.00;;;14.50
20058;BMP180;10189;49.546;7.906;2023-07-13T01:54:25;98186.00;;;14.50
20058;BMP180;10189;49.546;7.906;2023-07-13T01:56:50;98190.00;;;14.50
20058;BMP180;10189;49.546;7.906;2023-07-13T01:59:16;98185.00;;;14.40
20058;BMP180;10189;49.546;7.906;2023-07-13T02:01:42;98183.00;;;14.40
20058;BMP180;10189;49.546;7.906;2023-07-13T02:04:08;98193.00;;;14.40
20058;BMP180;10189;49.546;7.906;2023-07-13T02:06:34;98199.00;;;14.40
20058;BMP180;10189;49.546;7.906;2023-07-13T02:09:00;98194.00;;;14.50
20058;BMP180;10189;49.546;7.906;2023-07-13T02:11:26;98193.00;;;14.50
20058;BMP180;10189;49.546;7.906;2023-07-13T02:14:00;98185.00;;;14.40
20058;BMP180;10189;49.546;7.906;2023-07-13T02:16:28;98181.00;;;14.40
20058;BMP180;10189;49.546;7.906;2023-07-13T02:18:54;98176.00;;;14.40
20058;BMP180;10189;49.546;7.906;2023-07-13T02:21:22;98186.00;;;14.40
20058;BMP180;10189;49.546;7.906;2023-07-13T02:23:51;98186.00;;;14.40
20058;BMP180;10189;49.546;7.906;2023-07-13T02:26:18;98183.00;;;14.30
20058;BMP180;10189;49.546;7.906;2023-07-13T02:28:44;98188.00;;;14.30
20058;BMP180;10189;49.546;7.906;2023-07-13T02:31:15;98175.00;;;14.20
20058;BMP180;10189;49.546;7.906;2023-07-13T02:33:41;98188.00;;;14.20
20058;BMP180;10189;49.546;7.906;2023-07-13T02:36:08;98176.00;;;14.20
20058;BMP180;10189;49.546;7.906;2023-07-13T02:38:35;98188.00;;;14.20
20058;BMP180;10189;49.546;7.906;2023-07-13T02:41:06;98188.00;;;14.20
20058;BMP180;10189;49.546;7.906;2023-07-13T02:43:33;98185.00;;;14.20
20058;BMP180;10189;49.546;7.906;2023-07-13T02:46:00;98179.00;;;14.20
20058;BMP180;10189;49.546;7.906;2023-07-13T02:48:37;98177.00;;;14.30
20058;BMP180;10189;49.546;7.906;2023-07-13T02:51:03;98175.00;;;14.40
20058;BMP180;10189;49.546;7.906;2023-07-13T02:53:30;98176.00;;;14.50
20058;BMP180;10189;49.546;7.906;2023-07-13T02:55:56;98179.00;;;14.50
20058;BMP180;10189;49.546;7.906;2023-07-13T02:58:22;98173.00;;;14.60
20058;BMP180;10189;49.546;7.906;2023-07-13T03:00:49;98176.00;;;14.70
20058;BMP180;10189;49.546;7.906;2023-07-13T03:03:17;98166.00;;;14.80
20058;BMP180;10189;49.546;7.906;2023-07-13T03:05:45;98164.00;;;14.90
20058;BMP180;10189;49.546;7.906;2023-07-13T03:08:18;98174.00;;;15.00
20058;BMP180;10189;49.546;7.906;2023-07-13T03:10:44;98176.00;;;15.00
20058;BMP180;10189;49.546;7.906;2023-07-13T03:13:11;98172.00;;;15.00
20058;BMP180;10189;49.546;7.906;2023-07-13T03:15:37;98174.00;;;15.10
20058;BMP180;10189;49.546;7.906;2023-07-13T03:18:04;98175.00;;;15.10
20058;BMP180;10189;49.546;7.906;2023-07-13T03:20:33;98168.00;;;15.00
20058;BMP180;10189;49.546;7.906;2023-07-13T03:23:00;98183.00;;;15.00
20058;BMP180;10189;49.546;7.906;2023-07-13T03:25:27;98184.00;;;15.10
20058;BMP180;10189;49.546;7.906;2023-07-13T03:27:53;98184.00;;;15.20
20058;BMP180;10189;49.546;7.906;2023-07-13T03:30:20;98182.00;;;15.30
20058;BMP180;10189;49.546;7.906;2023-07-13T03:32:46;98186.00;;;15.30
20058;BMP180;10189;49.546;7.906;2023-07-13T03:35:12;98188.00;;;15.30
20058;BMP180;10189;49.546;7.906;2023-07-13T03:37:38;98195.00;;;15.30
20058;BMP180;10189;49.546;7.906;2023-07-13T03:40:10;98197.00;;;15.30
20058;BMP180;10189;49.546;7.906;2023-07-13T03:42:36;98194.00;;;15.30
20058;BMP180;10189;49.546;7.906;2023-07-13T03:45:02;98196.00;;;15.30
20058;BMP180;10189;49.546;7.906;2023-07-13T03:47:31;98205.00;;;15.40
20058;BMP180;10189;49.546;7.906;2023-07-13T03:49:57;98209.00;;;15.30
20058;BMP180;10189;49.546;7.906;2023-07-13T03:52:23;98204.00;;;15.40
20058;BMP180;10189;49.546;7.906;2023-07-13T03:54:49;98201.00;;;15.40
20058;BMP180;10189;49.546;7.906;2023-07-13T03:57:16;98205.00;;;15.50
20058;BMP180;10189;49.546;7.906;2023-07-13T03:59:42;98199.00;;;15.50
20058;BMP180;10189;49.546;7.906;2023-07-13T04:02:09;98191.00;;;15.40
20058;BMP180;10189;49.546;7.906;2023-07-13T04:04:35;98204.00;;;15.30
20058;BMP180;10189;49.546;7.906;2023-07-13T04:07:01;98204.00;;;15.20
20058;BMP180;10189;49.546;7.906;2023-07-13T04:09:27;98211.00;;;15.20
20058;BMP180;10189;49.546;7.906;2023-07-13T04:11:53;98197.00;;;15.30
20058;BMP180;10189;49.546;7.906;2023-07-13T04:14:19;98195.00;;;15.20
20058;BMP180;10189;49.546;7.906;2023-07-13T04:16:46;98209.00;;;15.30
20058;BMP180;10189;49.546;7.906;2023-07-13T04:19:13;98199.00;;;15.30
20058;BMP180;10189;49.546;7.906;2023-07-13T04:21:39;98206.00;;;15.20
20058;BMP180;10189;49.546;7.906;2023-07-13T04:24:05;98201.00;;;15.30
20058;BMP180;10189;49.546;7.906;2023-07-13T04:26:31;98208.00;;;15.30
20058;BMP180;10189;49.546;7.906;2023-07-13T04:28:57;98215.00;;;15.30
20058;BMP180;10189;49.546;7.906;2023-07-13T04:31:23;98225.00;;;15.30
20058;BMP180;10189;49.546;7.906;2023-07-13T04:33:49;98220.00;;;15.40
20058;BMP180;10189;49.546;7.906;2023-07-13T04:36:16;98217.00;;;15.30
20058;BMP180;10189;49.546;7.906;2023-07-13T04:38:42;98224.00;;;15.40
20058;BMP180;10189;49.546;7.906;2023-07-13T04:41:09;98216.00;;;15.60
20058;BMP180;10189;49.546;7.906;2023-07-13T04:43:35;98223.00;;;15.60
20058;BMP180;10189;49.546;7.906;2023-07-13T04:46:11;98209.00;;;15.70
20058;BMP180;10189;49.546;7.906;2023-07-13T04:48:38;98214.00;;;15.90
20058;BMP180;10189;49.546;7.906;2023-07-13T04:51:04;98216.00;;;16.10
20058;BMP180;10189;49.546;7.906;2023-07-13T04:53:31;98224.00;;;16.10
20058;BMP180;10189;49.546;7.906;2023-07-13T04:55:58;98217.00;;;16.20
20058;BMP180;10189;49.546;7.906;2023-07-13T04:58:25;98218.00;;;16.50
20058;BMP180;10189;49.546;7.906;2023-07-13T05:00:51;98213.00;;;16.80
20058;BMP180;10189;49.546;7.906;2023-07-13T05:03:17;98209.00;;;17.00
20058;BMP180;10189;49.546;7.906;2023-07-13T05:05:43;98211.00;;;17.20
20058;BMP180;10189;49.546;7.906;2023-07-13T05:08:09;98220.00;;;17.30
20058;BMP180;10189;49.546;7.906;2023-07-13T05:10:36;98205.00;;;17.40
20058;BMP180;10189;49.546;7.906;2023-07-13T05:13:01;98220.00;;;17.50
20058;BMP180;10189;49.546;7.906;2023-07-13T05:15:28;98225.00;;;17.60
20058;BMP180;10189;49.546;7.906;2023-07-13T05:17:54;98235.00;;;17.40
20058;BMP180;10189;49.546;7.906;2023-07-13T05:20:20;98232.00;;;17.50
20058;BMP180;10189;49.546;7.906;2023-07-13T05:22:46;98231.00;;;17.50
20058;BMP180;10189;49.546;7.906;2023-07-13T05:25:16;98233.00;;;17.80
20058;BMP180;10189;49.546;7.906;2023-07-13T05:27:42;98235.00;;;18.00
20058;BMP180;10189;49.546;7.906;2023-07-13T05:30:08;98225.00;;;18.30
20058;BMP180;10189;49.546;7.906;2023-07-13T05:32:36;98232.00;;;18.40
20058;BMP180;10189;49.546;7.906;2023-07-13T05:35:02;98230.00;;;18.50
20058;BMP180;10189;49.546;7.906;2023-07-13T05:37:28;98235.00;;;18.70
20058;BMP180;10189;49.546;7.906;2023-07-13T05:39:54;98226.00;;;18.80
20058;BMP180;10189;49.546;7.906;2023-07-13T05:42:20;98224.00;;;18.80
20058;BMP180;10189;49.546;7.906;2023-07-13T05:44:46;98232.00;;;19.00
20058;BMP180;10189;49.546;7.906;2023-07-13T05:47:12;98242.00;;;19.10
20058;BMP180;10189;49.546;7.906;2023-07-13T05:49:39;98243.00;;;19.10
20058;BMP180;10189;49.546;7.906;2023-07-13T05:52:06;98241.00;;;18.90
20058;BMP180;10189;49.546;7.906;2023-07-13T05:54:32;98232.00;;;18.90
20058;BMP180;10189;49.546;7.906;2023-07-13T05:56:57;98243.00;;;19.00
20058;BMP180;10189;49.546;7.906;2023-07-13T05:59:23;98245.00;;;19.30
20058;BMP180;10189;49.546;7.906;2023-07-13T06:01:49;98245.00;;;19.80
20058;BMP180;10189;49.546;7.906;2023-07-13T06:04:18;98250.00;;;20.00
20058;BMP180;10189;49.546;7.906;2023-07-13T06:06:45;98243.00;;;20.30
20058;BMP180;10189;49.546;7.906;2023-07-13T06:09:10;98250.00;;;20.40
20058;BMP180;10189;49.546;7.906;2023-07-13T06:11:36;98259.00;;;20.40
20058;BMP180;10189;49.546;7.906;2023-07-13T06:14:02;98253.00;;;20.50
20058;BMP180;10189;49.546;7.906;2023-07-13T06:16:29;98250.00;;;20.80
20058;BMP180;10189;49.546;7.906;2023-07-13T06:18:55;98246.00;;;21.20
20058;BMP180;10189;49.546;7.906;2023-07-13T06:21:22;98244.00;;;21.30
20058;BMP180;10189;49.546;7.906;2023-07-13T06:23:51;98240.00;;;21.80
20058;BMP180;10189;49.546;7.906;2023-07-13T06:26:21;98256.00;;;22.00
20058;BMP180;10189;49.546;7.906;2023-07-13T06:28:47;98254.00;;;21.70
20058;BMP180;10189;49.546;7.906;2023-07-13T06:31:14;98259.00;;;21.40
20058;BMP180;10189;49.546;7.906;2023-07-13T06:33:40;98254.00;;;21.40
20058;BMP180;10189;49.546;7.906;2023-07-13T06:36:08;98259.00;;;21.30
20058;BMP180;10189;49.546;7.906;2023-07-13T06:38:34;98267.00;;;21.30
20058;BMP180;10189;49.546;7.906;2023-07-13T06:41:00;98266.00;;;21.60
20058;BMP180;10189;49.546;7.906;2023-07-13T06:43:26;98269.00;;;21.90
20058;BMP180;10189;49.546;7.906;2023-07-13T06:45:55;98263.00;;;22.20
20058;BMP180;10189;49.546;7.906;2023-07-13T06:48:22;98266.00;;;22.40
20058;BMP180;10189;49.546;7.906;2023-07-13T06:50:49;98282.00;;;22.20
20058;BMP180;10189;49.546;7.906;2023-07-13T06:53:18;98278.00;;;22.00
20058;BMP180;10189;49.546;7.906;2023-07-13T06:55:45;98283.00;;;22.00
20058;BMP180;10189;49.546;7.906;2023-07-13T06:58:12;98286.00;;;22.10
20058;BMP180;10189;49.546;7.906;2023-07-13T07:00:37;98290.00;;;22.10
20058;BMP180;10189;49.546;7.906;2023-07-13T07:03:05;98280.00;;;22.40
20058;BMP180;10189;49.546;7.906;2023-07-13T07:05:32;98284.00;;;22.40
20058;BMP180;10189;49.546;7.906;2023-07-13T07:07:58;98288.00;;;22.60
20058;BMP180;10189;49.546;7.906;2023-07-13T07:10:25;98279.00;;;22.90
20058;BMP180;10189;49.546;7.906;2023-07-13T07:12:51;98295.00;;;22.50
20058;BMP180;10189;49.546;7.906;2023-07-13T07:15:18;98293.00;;;22.20
20058;BMP180;10189;49.546;7.906;2023-07-13T07:17:44;98287.00;;;22.50
20058;BMP180;10189;49.546;7.906;2023-07-13T07:20:11;98288.00;;;22.70
20058;BMP180;10189;49.546;7.906;2023-07-13T07:22:37;98283.00;;;22.90
20058;BMP180;10189;49.546;7.906;2023-07-13T07:25:03;98295.00;;;23.30
20058;BMP180;10189;49.546;7.906;2023-07-13T07:27:29;98292.00;;;23.30
20058;BMP180;10189;49.546;7.906;2023-07-13T07:29:55;98287.00;;;23.40
20058;BMP180;10189;49.546;7.906;2023-07-13T07:32:20;98289.00;;;23.60
20058;BMP180;10189;49.546;7.906;2023-07-13T07:34:46;98288.00;;;23.80
20058;BMP180;10189;49.546;7.906;2023-07-13T07:37:13;98282.00;;;24.00
20058;BMP180;10189;49.546;7.906;2023-07-13T07:39:39;98284.00;;;23.90
20058;BMP180;10189;49.546;7.906;2023-07-13T07:42:06;98286.00;;;24.00
20058;BMP180;10189;49.546;7.906;2023-07-13T07:44:32;98291.00;;;23.90
20058;BMP180;10189;49.546;7.906;2023-07-13T07:46:59;98291.00;;;24.00
20058;BMP180;10189;49.546;7.906;2023-07-13T07:49:25;98296.00;;;24.10
20058;BMP180;10189;49.546;7.906;2023-07-13T07:51:51;98283.00;;;24.30
20058;BMP180;10189;49.546;7.906;2023-07-13T07:54:17;98284.00;;;24.60
20058;BMP180;10189;49.546;7.906;2023-07-13T07:56:43;98285.00;;;24.30
20058;BMP180;10189;49.546;7.906;2023-07-13T07:59:09;98286.00;;;24.50
20058;BMP180;10189;49.546;7.906;2023-07-13T08:01:36;98292.00;;;24.70
20058;BMP180;10189;49.546;7.906;2023-07-13T08:04:02;98292.00;;;24.30
20058;BMP180;10189;49.546;7.906;2023-07-13T08:06:28;98296.00;;;24.20
20058;BMP180;10189;49.546;7.906;2023-07-13T08:08:55;98292.00;;;24.40
20058;BMP180;10189;49.546;7.906;2023-07-13T08:11:22;98299.00;;;24.50
20058;BMP180;10189;49.546;7.906;2023-07-13T08:13:50;98289.00;;;24.70
20058;BMP180;10189;49.546;7.906;2023-07-13T08:16:16;98292.00;;;24.30
20058;BMP180;10189;49.546;7.906;2023-07-13T08:18:42;98291.00;;;24.00
20058;BMP180;10189;49.546;7.906;2023-07-13T08:21:09;98295.00;;;24.00
20058;BMP180;10189;49.546;7.906;2023-07-13T08:23:36;98289.00;;;23.70
20058;BMP180;10189;49.546;7.906;2023-07-13T08:26:02;98281.00;;;24.20
20058;BMP180;10189;49.546;7.906;2023-07-13T08:28:30;98289.00;;;24.10
20058;BMP180;10189;49.546;7.906;2023-07-13T08:31:06;98275.00;;;24.20
20058;BMP180;10189;49.546;7.906;2023-07-13T08:33:35;98286.00;;;24.20
20058;BMP180;10189;49.546;7.906;2023-07-13T08:36:02;98285.00;;;24.30
20058;BMP180;10189;49.546;7.906;2023-07-13T08:38:28;98290.00;;;24.40
20058;BMP180;10189;49.546;7.906;2023-07-13T08:40:56;98296.00;;;24.50
20058;BMP180;10189;49.546;7.906;2023-07-13T08:43:35;98294.00;;;24.60
20058;BMP180;10189;49.546;7.906;2023-07-13T08:48:56;98290.00;;;24.70
20058;BMP180;10189;49.546;7.906;2023-07-13T08:51:46;98286.00;;;25.10
20058;BMP180;10189;49.546;7.906;2023-07-13T08:56:53;98286.00;;;25.70
20058;BMP180;10189;49.546;7.906;2023-07-13T08:59:27;98295.00;;;25.40
20058;BMP180;10189;49.546;7.906;2023-07-13T09:04:53;98289.00;;;25.30
20058;BMP180;10189;49.546;7.906;2023-07-13T09:13:37;98282.00;;;25.60
20058;BMP180;10189;49.546;7.906;2023-07-13T09:16:05;98285.00;;;26.00
20058;BMP180;10189;49.546;7.906;2023-07-13T09:18:40;98278.00;;;26.60
20058;BMP180;10189;49.546;7.906;2023-07-13T09:21:13;98286.00;;;26.10
20058;BMP180;10189;49.546;7.906;2023-07-13T09:23:41;98281.00;;;26.60
20058;BMP180;10189;49.546;7.906;2023-07-13T09:26:21;98294.00;;;26.20
20058;BMP180;10189;49.546;7.906;2023-07-13T09:28:53;98285.00;;;25.80
20058;BMP180;10189;49.546;7.906;2023-07-13T09:31:32;98287.00;;;25.80
20058;BMP180;10189;49.546;7.906;2023-07-13T09:34:00;98279.00;;;26.00
20058;BMP180;10189;49.546;7.906;2023-07-13T09:36:31;98283.00;;;25.60
20058;BMP180;10189;49.546;7.906;2023-07-13T09:39:12;98279.00;;;26.00
20058;BMP180;10189;49.546;7.906;2023-07-13T09:41:49;98290.00;;;26.10
20058;BMP180;10189;49.546;7.906;2023-07-13T09:44:31;98287.00;;;26.20
20058;BMP180;10189;49.546;7.906;2023-07-13T09:46:57;98289.00;;;26.10
20058;BMP180;10189;49.546;7.906;2023-07-13T09:49:34;98289.00;;;25.60
20058;BMP180;10189;49.546;7.906;2023-07-13T09:52:05;98297.00;;;26.10
20058;BMP180;10189;49.546;7.906;2023-07-13T09:54:35;98299.00;;;26.10
20058;BMP180;10189;49.546;7.906;2023-07-13T09:57:12;98292.00;;;26.30
20058;BMP180;10189;49.546;7.906;2023-07-13T09:59:47;98294.00;;;26.10
20058;BMP180;10189;49.546;7.906;2023-07-13T10:02:23;98290.00;;;25.70
20058;BMP180;10189;49.546;7.906;2023-07-13T10:05:15;98308.00;;;25.50
20058;BMP180;10189;49.546;7.906;2023-07-13T10:07:45;98291.00;;;25.60
20058;BMP180;10189;49.546;7.906;2023-07-13T10:10:21;98297.00;;;25.40
20058;BMP180;10189;49.546;7.906;2023-07-13T10:12:49;98302.00;;;25.20
20058;BMP180;10189;49.546;7.906;2023-07-13T10:15:25;98287.00;;;25.60
20058;BMP180;10189;49.546;7.906;2023-07-13T10:17:54;98302.00;;;25.90
20058;BMP180;10189;49.546;7.906;2023-07-13T10:20:22;98300.00;;;25.90
20058;BMP180;10189;49.546;7.906;2023-07-13T10:23:02;98296.00;;;26.10
20058;BMP180;10189;49.546;7.906;2023-07-13T10:25:34;98285.00;;;25.60
20058;BMP180;10189;49.546;7.906;2023-07-13T10:28:28;98301.00;;;25.50
20058;BMP180;10189;49.546;7.906;2023-07-13T10:30:59;98302.00;;;26.00
20058;BMP180;10189;49.546;7.906;2023-07-13T10:33:26;98299.00;;;25.60
20058;BMP180;10189;49.546;7.906;2023-07-13T10:38:40;98307.00;;;25.90
20058;BMP180;10189;49.546;7.906;2023-07-13T10:41:12;98313.00;;;26.10
20058;BMP180;10189;49.546;7.906;2023-07-13T10:43:48;98296.00;;;25.80
20058;BMP180;10189;49.546;7.906;2023-07-13T10:46:21;98303.00;;;25.60
20058;BMP180;10189;49.546;7.906;2023-07-13T10:48:55;98305.00;;;25.50
20058;BMP180;10189;49.546;7.906;2023-07-13T10:51:22;98302.00;;;25.40
20058;BMP180;10189;49.546;7.906;2023-07-13T10:54:19;98296.00;;;25.50
20058;BMP180;10189;49.546;7.906;2023-07-13T10:56:52;98306.00;;;25.50
20058;BMP180;10189;49.546;7.906;2023-07-13T10:59:26;98299.00;;;25.40
20058;BMP180;10189;49.546;7.906;2023-07-13T11:02:15;98303.00;;;25.60
20058;BMP180;10189;49.546;7.906;2023-07-13T11:04:47;98308.00;;;26.00
20058;BMP180;10189;49.546;7.906;2023-07-13T11:07:29;98304.00;;;26.70
20058;BMP180;10189;49.546;7.906;2023-07-13T11:09:58;98294.00;;;27.00
20058;BMP180;10189;49.546;7.906;2023-07-13T11:20:37;98295.00;;;26.50
20058;BMP180;10189;49.546;7.906;2023-07-13T11:25:38;98293.00;;;26.50
20058;BMP180;10189;49.546;7.906;2023-07-13T11:30:59;98292.00;;;26.90
20058;BMP180;10189;49.546;7.906;2023-07-13T11:33:52;98304.00;;;27.30
20058;BMP180;10189;49.546;7.906;2023-07-13T11:36:23;98306.00;;;26.80
20058;BMP180;10189;49.546;7.906;2023-07-13T11:39:03;98298.00;;;26.40
20058;BMP180;10189;49.546;7.906;2023-07-13T11:41:44;98302.00;;;26.70
20058;BMP180;10189;49.546;7.906;2023-07-13T11:44:16;98304.00;;;27.40
20058;BMP180;10189;49.546;7.906;2023-07-13T11:46:54;98302.00;;;27.70
20058;BMP180;10189;49.546;7.906;2023-07-13T11:49:24;98285.00;;;27.60
20058;BMP180;10189;49.546;7.906;2023-07-13T11:51:51;98295.00;;;27.60
20058;BMP180;10189;49.546;7.906;2023-07-13T11:56:50;98303.00;;;26.20
20058;BMP180;10189;49.546;7.906;2023-07-13T11:59:16;98295.00;;;25.90
20058;BMP180;10189;49.546;7.906;2023-07-13T12:01:49;98295.00;;;25.50
20058;BMP180;10189;49.546;7.906;2023-07-13T12:04:32;98306.00;;;25.80
20058;BMP180;10189;49.546;7.906;2023-07-13T12:09:33;98309.00;;;25.80
20058;BMP180;10189;49.546;7.906;2023-07-13T12:11:59;98313.00;;;26.00
20058;BMP180;10189;49.546;7.906;2023-07-13T12:14:28;98307.00;;;26.20
20058;BMP180;10189;49.546;7.906;2023-07-13T12:16:55;98306.00;;;26.70
20058;BMP180;10189;49.546;7.906;2023-07-13T12:19:28;98301.00;;;26.60
20058;BMP180;10189;49.546;7.906;2023-07-13T12:21:58;98301.00;;;26.30
20058;BMP180;10189;49.546;7.906;2023-07-13T12:24:26;98298.00;;;26.40
20058;BMP180;10189;49.546;7.906;2023-07-13T12:27:04;98307.00;;;27.10
20058;BMP180;10189;49.546;7.906;2023-07-13T12:29:32;98294.00;;;27.60
20058;BMP180;10189;49.546;7.906;2023-07-13T12:31:59;98307.00;;;27.50
20058;BMP180;10189;49.546;7.906;2023-07-13T12:34:26;98319.00;;;27.20
20058;BMP180;10189;49.546;7.906;2023-07-13T12:36:59;98313.00;;;26.80
20058;BMP180;10189;49.546;7.906;2023-07-13T12:39:46;98321.00;;;26.70
20058;BMP180;10189;49.546;7.906;2023-07-13T12:47:58;98327.00;;;25.40
20058;BMP180;10189;49.546;7.906;2023-07-13T12:50:37;98323.00;;;25.80
20058;BMP180;10189;49.546;7.906;2023-07-13T12:53:05;98324.00;;;25.80
20058;BMP180;10189;49.546;7.906;2023-07-13T12:55:48;98316.00;;;25.90
20058;BMP180;10189;49.546;7.906;2023-07-13T12:58:41;98319.00;;;26.20
20058;BMP180;10189;49.546;7.906;2023-07-13T13:01:11;98311.00;;;25.90
20058;BMP180;10189;49.546;7.906;2023-07-13T13:03:45;98318.00;;;25.60
20058;BMP180;10189;49.546;7.906;2023-07-13T13:08:46;98316.00;;;25.90
20058;BMP180;10189;49.546;7.906;2023-07-13T13:11:19;98316.00;;;26.40
20058;BMP180;10189;49.546;7.906;2023-07-13T13:13:45;98323.00;;;26.30
20058;BMP180;10189;49.546;7.906;2023-07-13T13:18:55;98323.00;;;26.80
20058;BMP180;10189;49.546;7.906;2023-07-13T13:21:24;98324.00;;;27.00
20058;BMP180;10189;49.546;7.906;2023-07-13T13:23:50;98327.00;;;27.20
20058;BMP180;10189;49.546;7.906;2023-07-13T13:26:19;98325.00;;;27.00
20058;BMP180;10189;49.546;7.906;2023-07-13T13:28:47;98324.00;;;27.20
20058;BMP180;10189;49.546;7.906;2023-07-13T13:31:16;98325.00;;;26.60
20058;BMP180;10189;49.546;7.906;2023-07-13T13:33:44;98316.00;;;27.40
20058;BMP180;10189;49.546;7.906;2023-07-13T13:36:21;98321.00;;;27.60
20058;BMP180;10189;49.546;7.906;2023-07-13T13:38:49;98331.00;;;27.90
20058;BMP180;10189;49.546;7.906;2023-07-13T13:41:16;98324.00;;;26.70
20058;BMP180;10189;49.546;7.906;2023-07-13T13:43:43;98317.00;;;26.80
20058;BMP180;10189;49.546;7.906;2023-07-13T13:46:18;98314.00;;;27.00
20058;BMP180;10189;49.546;7.906;2023-07-13T13:48:45;98308.00;;;26.50
20058;BMP180;10189;49.546;7.906;2023-07-13T13:51:24;98317.00;;;26.30
20058;BMP180;10189;49.546;7.906;2023-07-13T13:53:51;98328.00;;;26.10
20058;BMP180;10189;49.546;7.906;2023-07-13T13:56:19;98320.00;;;26.00
20058;BMP180;10189;49.546;7.906;2023-07-13T13:58:45;98322.00;;;26.20
20058;BMP180;10189;49.546;7.906;2023-07-13T14:01:21;98327.00;;;26.40
20058;BMP180;10189;49.546;7.906;2023-07-13T14:03:49;98328.00;;;26.40
20058;BMP180;10189;49.546;7.906;2023-07-13T14:06:17;98331.00;;;26.60
20058;BMP180;10189;49.546;7.906;2023-07-13T14:08:43;98309.00;;;26.40
20058;BMP180;10189;49.546;7.906;2023-07-13T14:11:18;98332.00;;;26.60
20058;BMP180;10189;49.546;7.906;2023-07-13T14:13:51;98326.00;;;26.60
20058;BMP180;10189;49.546;7.906;2023-07-13T14:16:19;98318.00;;;27.20
20058;BMP180;10189;49.546;7.906;2023-07-13T14:18:48;98335.00;;;26.60
20058;BMP180;10189;49.546;7.906;2023-07-13T14:21:20;98326.00;;;26.40
20058;BMP180;10189;49.546;7.906;2023-07-13T14:23:48;98327.00;;;26.80
20058;BMP180;10189;49.546;7.906;2023-07-13T14:26:20;98324.00;;;26.40
20058;BMP180;10189;49.546;7.906;2023-07-13T14:28:54;98326.00;;;26.40
20058;BMP180;10189;49.546;7.906;2023-07-13T14:31:23;98341.00;;;26.30
20058;BMP180;10189;49.546;7.906;2023-07-13T14:33:49;98336.00;;;25.80
20058;BMP180;10189;49.546;7.906;2023-07-13T14:36:29;98336.00;;;25.90
20058;BMP180;10189;49.546;7.906;2023-07-13T14:38:58;98334.00;;;25.90
20058;BMP180;10189;49.546;7.906;2023-07-13T14:41:25;98331.00;;;25.80
20058;BMP180;10189;49.546;7.906;2023-07-13T14:43:51;98334.00;;;26.20
20058;BMP180;10189;49.546;7.906;2023-07-13T14:46:36;98344.00;;;26.70
20058;BMP180;10189;49.546;7.906;2023-07-13T14:49:30;98335.00;;;26.80
20058;BMP180;10189;49.546;7.906;2023-07-13T14:52:05;98346.00;;;26.30
20058;BMP180;10189;49.546;7.906;2023-07-13T14:54:34;98329.00;;;26.80
20058;BMP180;10189;49.546;7.906;2023-07-13T14:57:00;98332.00;;;26.20
20058;BMP180;10189;49.546;7.906;2023-07-13T14:59:27;98331.00;;;26.40
20058;BMP180;10189;49.546;7.906;2023-07-13T15:01:53;98327.00;;;26.40
20058;BMP180;10189;49.546;7.906;2023-07-13T15:04:18;98317.00;;;26.80
20058;BMP180;10189;49.546;7.906;2023-07-13T15:07:01;98318.00;;;26.80
20058;BMP180;10189;49.546;7.906;2023-07-13T15:09:28;98313.00;;;26.40